ENT4174 LTBJ-EPWA
Flight info
| Callsign | ENT4174 |
|---|---|
| Flight time | 2h 20m |
| Altitude | 38000 |
| Route | VEXOL UY134 KERMA UL618 LMO DCT ATFIR DCT LOMOS/N0449F400 DCT NARKA DCT RAZEC DCT ORTEB DCT KONZI DCT LOGDA |
| Aircraft | B738/M-VOLDFGIRWYHJ1X/EB1 |
Departure
| Time | 2026-05-04 07:29 |
|---|---|
| Airport | Adnan Menderes International Airport (LTBJ) |
Arrival
| Time | 2026-05-04 09:49 |
|---|---|
| Airport | Warsaw Chopin Airport (EPWA) |
| Time | Latitude | Longitude | Altitude | Speed | Heading |
|---|---|---|---|---|---|
| 2026-05-04 07:06 | 38.29198 | 27.15085 | 403 ft | 0 kts | 257° |
| 2026-05-04 07:18 | 38.29198 | 27.15086 | 404 ft | 0 kts | 257° |
| 2026-05-04 07:20 | 38.29199 | 27.15092 | 404 ft | 2 kts | 257° |
| 2026-05-04 07:20 | 38.29203 | 27.15111 | 403 ft | 2 kts | 256° |
| 2026-05-04 07:20 | 38.29206 | 27.15124 | 403 ft | 2 kts | 250° |
| 2026-05-04 07:20 | 38.29214 | 27.15142 | 402 ft | 2 kts | 225° |
| 2026-05-04 07:22 | 38.29260 | 27.15155 | 399 ft | 0 kts | 166° |
| 2026-05-04 07:23 | 38.29259 | 27.15156 | 400 ft | 1 kts | 166° |
| 2026-05-04 07:24 | 38.29239 | 27.15162 | 400 ft | 4 kts | 166° |
| 2026-05-04 07:24 | 38.29195 | 27.15175 | 403 ft | 7 kts | 168° |
| 2026-05-04 07:24 | 38.29137 | 27.15191 | 405 ft | 9 kts | 166° |
| 2026-05-04 07:24 | 38.29059 | 27.15215 | 408 ft | 12 kts | 166° |
| 2026-05-04 07:25 | 38.28997 | 27.15286 | 406 ft | 13 kts | 136° |
| 2026-05-04 07:26 | 38.28099 | 27.15589 | 389 ft | 8 kts | 115° |
| 2026-05-04 07:27 | 38.28102 | 27.15664 | 387 ft | 7 kts | 73° |
| 2026-05-04 07:27 | 38.28119 | 27.15736 | 386 ft | 7 kts | 75° |
| 2026-05-04 07:27 | 38.28135 | 27.15820 | 385 ft | 11 kts | 76° |
| 2026-05-04 07:27 | 38.28155 | 27.15931 | 384 ft | 10 kts | 77° |
| 2026-05-04 07:28 | 38.28202 | 27.15998 | 384 ft | 11 kts | 5° |
| 2026-05-04 07:28 | 38.28298 | 27.15980 | 387 ft | 15 kts | 347° |
| 2026-05-04 07:28 | 38.28649 | 27.15874 | 396 ft | 83 kts | 347° |
| 2026-05-04 07:28 | 38.29465 | 27.15630 | 405 ft | 141 kts | 347° |
| 2026-05-04 07:29 | 38.30586 | 27.15285 | 789 ft | 157 kts | 347° |
| 2026-05-04 07:29 | 38.31662 | 27.14947 | 1554 ft | 153 kts | 347° |
| 2026-05-04 07:29 | 38.32733 | 27.14602 | 2057 ft | 160 kts | 347° |
| 2026-05-04 07:29 | 38.33893 | 27.14220 | 2410 ft | 177 kts | 349° |
| 2026-05-04 07:30 | 38.35170 | 27.13833 | 2835 ft | 192 kts | 343° |
| 2026-05-04 07:30 | 38.36403 | 27.12956 | 3175 ft | 215 kts | 323° |
| 2026-05-04 07:30 | 38.37555 | 27.11552 | 3656 ft | 231 kts | 319° |
| 2026-05-04 07:30 | 38.38753 | 27.10027 | 4124 ft | 245 kts | 320° |
| 2026-05-04 07:31 | 38.40073 | 27.08427 | 4809 ft | 250 kts | 322° |
| 2026-05-04 07:31 | 38.41405 | 27.06855 | 5560 ft | 252 kts | 322° |
| 2026-05-04 07:33 | 38.50731 | 26.95832 | 10581 ft | 276 kts | 320° |
| 2026-05-04 07:33 | 38.52187 | 26.94114 | 11238 ft | 283 kts | 320° |
| 2026-05-04 07:33 | 38.53639 | 26.92391 | 11987 ft | 286 kts | 320° |
| 2026-05-04 07:33 | 38.55122 | 26.90624 | 12774 ft | 289 kts | 320° |
| 2026-05-04 07:34 | 38.56656 | 26.88805 | 13550 ft | 292 kts | 321° |
| 2026-05-04 07:34 | 38.58181 | 26.87001 | 14301 ft | 296 kts | 320° |
| 2026-05-04 07:34 | 38.59694 | 26.85206 | 14974 ft | 301 kts | 320° |
| 2026-05-04 07:34 | 38.61233 | 26.83370 | 15705 ft | 305 kts | 320° |
| 2026-05-04 07:35 | 38.62790 | 26.81507 | 16390 ft | 310 kts | 320° |
| 2026-05-04 07:35 | 38.64354 | 26.79640 | 17047 ft | 314 kts | 319° |
| 2026-05-04 07:35 | 38.65957 | 26.77727 | 17690 ft | 319 kts | 320° |
| 2026-05-04 07:35 | 38.67592 | 26.75777 | 18333 ft | 324 kts | 320° |
| 2026-05-04 07:36 | 38.69263 | 26.73790 | 19001 ft | 328 kts | 320° |
| 2026-05-04 07:36 | 38.70981 | 26.71746 | 19644 ft | 332 kts | 319° |
| 2026-05-04 07:38 | 38.83490 | 26.56778 | 23844 ft | 358 kts | 319° |
| 2026-05-04 07:38 | 38.85316 | 26.54582 | 24329 ft | 363 kts | 319° |
| 2026-05-04 07:38 | 38.87202 | 26.52308 | 24957 ft | 364 kts | 319° |
| 2026-05-04 07:38 | 38.89139 | 26.49974 | 25446 ft | 368 kts | 320° |
| 2026-05-04 07:39 | 38.91065 | 26.47659 | 25935 ft | 372 kts | 320° |
| 2026-05-04 07:39 | 38.92972 | 26.45369 | 26392 ft | 376 kts | 319° |
| 2026-05-04 07:39 | 38.94906 | 26.43043 | 26848 ft | 379 kts | 319° |
| 2026-05-04 07:39 | 38.96905 | 26.40633 | 27289 ft | 383 kts | 319° |
| 2026-05-04 07:40 | 38.98869 | 26.38259 | 27723 ft | 387 kts | 319° |
| 2026-05-04 07:40 | 39.00895 | 26.35805 | 28139 ft | 391 kts | 319° |
| 2026-05-04 07:40 | 39.02902 | 26.33375 | 28551 ft | 394 kts | 319° |
| 2026-05-04 07:40 | 39.04892 | 26.30967 | 28946 ft | 397 kts | 320° |
| 2026-05-04 07:41 | 39.06898 | 26.28538 | 29330 ft | 401 kts | 320° |
| 2026-05-04 07:41 | 39.08962 | 26.26038 | 29719 ft | 404 kts | 319° |
| 2026-05-04 07:41 | 39.11033 | 26.23531 | 30092 ft | 407 kts | 319° |
| 2026-05-04 07:41 | 39.13101 | 26.21028 | 30407 ft | 411 kts | 320° |
| 2026-05-04 07:42 | 39.15201 | 26.18481 | 30822 ft | 413 kts | 320° |
| 2026-05-04 07:42 | 39.17338 | 26.15884 | 31098 ft | 417 kts | 320° |
| 2026-05-04 07:42 | 39.19445 | 26.13315 | 31501 ft | 416 kts | 319° |
| 2026-05-04 07:42 | 39.21566 | 26.10730 | 31823 ft | 418 kts | 320° |
| 2026-05-04 07:43 | 39.23674 | 26.08157 | 32145 ft | 418 kts | 319° |
| 2026-05-04 07:43 | 39.25802 | 26.05557 | 32421 ft | 419 kts | 319° |
| 2026-05-04 07:43 | 39.27926 | 26.02960 | 32721 ft | 419 kts | 319° |
| 2026-05-04 07:43 | 39.30047 | 26.00365 | 32997 ft | 420 kts | 318° |
| 2026-05-04 07:44 | 39.32144 | 25.97797 | 33307 ft | 420 kts | 319° |
| 2026-05-04 07:44 | 39.34280 | 25.95181 | 33513 ft | 422 kts | 319° |
| 2026-05-04 07:44 | 39.36418 | 25.92563 | 33838 ft | 420 kts | 318° |
| 2026-05-04 07:44 | 39.38521 | 25.89983 | 34132 ft | 420 kts | 318° |
| 2026-05-04 07:45 | 39.40648 | 25.87370 | 34338 ft | 423 kts | 318° |
| 2026-05-04 07:45 | 39.42777 | 25.84754 | 34609 ft | 424 kts | 319° |
| 2026-05-04 07:45 | 39.44912 | 25.82133 | 34865 ft | 426 kts | 318° |
| 2026-05-04 07:45 | 39.47057 | 25.79497 | 35126 ft | 427 kts | 318° |
| 2026-05-04 07:46 | 39.49224 | 25.76823 | 35389 ft | 428 kts | 318° |
| 2026-05-04 07:46 | 39.51387 | 25.74154 | 35562 ft | 431 kts | 318° |
| 2026-05-04 07:46 | 39.53535 | 25.71502 | 35961 ft | 427 kts | 318° |
| 2026-05-04 07:46 | 39.55703 | 25.68823 | 36333 ft | 425 kts | 318° |
| 2026-05-04 07:47 | 39.57819 | 25.66206 | 36633 ft | 424 kts | 318° |
| 2026-05-04 07:47 | 39.59952 | 25.63572 | 36903 ft | 424 kts | 318° |
| 2026-05-04 07:47 | 39.62090 | 25.60935 | 37101 ft | 425 kts | 318° |
| 2026-05-04 07:49 | 39.77042 | 25.42353 | 38125 ft | 426 kts | 318° |
| 2026-05-04 07:49 | 39.81287 | 25.37043 | 38125 ft | 422 kts | 318° |
| 2026-05-04 07:50 | 39.85595 | 25.31663 | 38130 ft | 424 kts | 317° |
| 2026-05-04 07:50 | 39.89833 | 25.26361 | 38128 ft | 425 kts | 317° |
| 2026-05-04 07:51 | 39.94288 | 25.21281 | 38125 ft | 423 kts | 323° |
| 2026-05-04 07:51 | 39.99021 | 25.16737 | 38128 ft | 424 kts | 325° |
| 2026-05-04 07:52 | 40.03818 | 25.12224 | 38136 ft | 424 kts | 325° |
| 2026-05-04 07:52 | 40.08566 | 25.07691 | 38126 ft | 423 kts | 325° |
| 2026-05-04 07:54 | 40.27474 | 24.89395 | 38129 ft | 424 kts | 325° |
| 2026-05-04 07:55 | 40.32216 | 24.84772 | 38138 ft | 423 kts | 325° |
| 2026-05-04 07:55 | 40.36935 | 24.80169 | 38132 ft | 422 kts | 325° |
| 2026-05-04 07:56 | 40.41659 | 24.75570 | 38141 ft | 423 kts | 325° |
| 2026-05-04 07:56 | 40.46375 | 24.70963 | 38129 ft | 422 kts | 325° |
| 2026-05-04 07:57 | 40.51094 | 24.66335 | 38131 ft | 423 kts | 325° |
| 2026-05-04 07:57 | 40.55821 | 24.61702 | 38135 ft | 422 kts | 325° |
| 2026-05-04 07:58 | 40.60531 | 24.57071 | 38127 ft | 422 kts | 325° |
| 2026-05-04 07:58 | 40.65239 | 24.52421 | 38130 ft | 422 kts | 325° |
| 2026-05-04 07:59 | 40.69946 | 24.47785 | 38133 ft | 423 kts | 326° |
| 2026-05-04 07:59 | 40.74621 | 24.43172 | 38136 ft | 421 kts | 326° |
| 2026-05-04 08:00 | 40.79368 | 24.38467 | 38131 ft | 423 kts | 326° |
| 2026-05-04 08:02 | 40.98174 | 24.19731 | 38130 ft | 421 kts | 325° |
| 2026-05-04 08:02 | 41.02875 | 24.15013 | 38124 ft | 422 kts | 326° |
| 2026-05-04 08:03 | 41.07565 | 24.10327 | 38128 ft | 422 kts | 326° |
| 2026-05-04 08:03 | 41.12235 | 24.05652 | 38124 ft | 422 kts | 325° |
| 2026-05-04 08:04 | 41.16919 | 24.00948 | 38121 ft | 421 kts | 326° |
| 2026-05-04 08:04 | 41.21582 | 23.96239 | 38126 ft | 420 kts | 326° |
| 2026-05-04 08:05 | 41.26244 | 23.91529 | 38106 ft | 420 kts | 326° |
| 2026-05-04 08:05 | 41.30914 | 23.86814 | 38116 ft | 421 kts | 326° |
| 2026-05-04 08:06 | 41.35562 | 23.82122 | 38112 ft | 420 kts | 326° |
| 2026-05-04 08:06 | 41.40500 | 23.78017 | 38110 ft | 415 kts | 339° |
| 2026-05-04 08:08 | 41.60268 | 23.73226 | 38085 ft | 413 kts | 352° |
| 2026-05-04 08:08 | 41.63131 | 23.72640 | 38092 ft | 412 kts | 352° |
| 2026-05-04 08:11 | 41.88598 | 23.67305 | 38078 ft | 411 kts | 352° |
| 2026-05-04 08:11 | 41.97095 | 23.65506 | 38075 ft | 410 kts | 352° |
| 2026-05-04 08:12 | 42.02712 | 23.64334 | 38086 ft | 411 kts | 352° |
| 2026-05-04 08:12 | 42.08400 | 23.63137 | 38092 ft | 412 kts | 352° |
| 2026-05-04 08:13 | 42.14066 | 23.61939 | 38092 ft | 411 kts | 352° |
| 2026-05-04 08:13 | 42.19728 | 23.60733 | 38091 ft | 410 kts | 352° |
| 2026-05-04 08:14 | 42.25382 | 23.59530 | 38093 ft | 411 kts | 352° |
| 2026-05-04 08:16 | 42.48061 | 23.54668 | 38128 ft | 412 kts | 352° |
| 2026-05-04 08:16 | 42.53742 | 23.53445 | 38114 ft | 410 kts | 352° |
| 2026-05-04 08:17 | 42.59387 | 23.52238 | 38125 ft | 412 kts | 353° |
| 2026-05-04 08:17 | 42.65100 | 23.51008 | 38133 ft | 413 kts | 353° |
| 2026-05-04 08:19 | 42.87796 | 23.46090 | 38140 ft | 412 kts | 353° |
| 2026-05-04 08:20 | 42.92554 | 23.45053 | 38134 ft | 413 kts | 353° |
| 2026-05-04 08:20 | 42.99173 | 23.43602 | 38127 ft | 413 kts | 353° |
| 2026-05-04 08:21 | 43.04853 | 23.42362 | 38115 ft | 413 kts | 353° |
| 2026-05-04 08:21 | 43.10565 | 23.41119 | 38126 ft | 413 kts | 353° |
| 2026-05-04 08:22 | 43.16240 | 23.39885 | 38126 ft | 413 kts | 353° |
| 2026-05-04 08:24 | 43.38972 | 23.34858 | 38125 ft | 413 kts | 352° |
| 2026-05-04 08:24 | 43.44678 | 23.33583 | 38121 ft | 414 kts | 352° |
| 2026-05-04 08:25 | 43.50319 | 23.32334 | 38116 ft | 412 kts | 352° |
| 2026-05-04 08:25 | 43.56020 | 23.31067 | 38118 ft | 415 kts | 352° |
| 2026-05-04 08:27 | 43.78837 | 23.25977 | 38128 ft | 414 kts | 353° |
| 2026-05-04 08:28 | 43.84496 | 23.24605 | 38125 ft | 416 kts | 349° |
| 2026-05-04 08:28 | 43.90151 | 23.22571 | 38114 ft | 416 kts | 346° |
| 2026-05-04 08:29 | 43.95738 | 23.20326 | 38116 ft | 418 kts | 346° |
| 2026-05-04 08:31 | 44.18104 | 23.11604 | 38109 ft | 414 kts | 347° |
| 2026-05-04 08:33 | 44.40323 | 23.02943 | 38106 ft | 414 kts | 347° |
| 2026-05-04 08:35 | 44.62600 | 22.94258 | 38100 ft | 413 kts | 346° |
| 2026-05-04 08:35 | 44.68131 | 22.92079 | 38091 ft | 413 kts | 347° |
| 2026-05-04 08:37 | 44.87492 | 22.84404 | 38090 ft | 414 kts | 346° |
| 2026-05-04 08:38 | 44.93053 | 22.82194 | 38092 ft | 411 kts | 347° |
| 2026-05-04 08:38 | 44.98551 | 22.80015 | 38099 ft | 412 kts | 346° |
| 2026-05-04 08:40 | 45.20677 | 22.71149 | 38115 ft | 411 kts | 346° |
| 2026-05-04 08:41 | 45.26157 | 22.68948 | 38113 ft | 411 kts | 346° |
| 2026-05-04 08:41 | 45.31699 | 22.66716 | 38117 ft | 413 kts | 346° |
| 2026-05-04 08:42 | 45.37181 | 22.64506 | 38120 ft | 411 kts | 346° |
| 2026-05-04 08:42 | 45.41764 | 22.62644 | 38117 ft | 411 kts | 347° |
| 2026-05-04 08:43 | 45.48187 | 22.60054 | 38111 ft | 412 kts | 347° |
| 2026-05-04 08:43 | 45.52784 | 22.58192 | 38123 ft | 411 kts | 346° |
| 2026-05-04 08:44 | 45.59274 | 22.55536 | 38118 ft | 411 kts | 346° |
| 2026-05-04 08:46 | 45.81335 | 22.46528 | 38120 ft | 412 kts | 346° |
| 2026-05-04 08:46 | 45.86868 | 22.44255 | 38118 ft | 411 kts | 347° |
| 2026-05-04 08:47 | 45.92366 | 22.41990 | 38138 ft | 412 kts | 347° |
| 2026-05-04 08:47 | 45.97910 | 22.39698 | 38122 ft | 412 kts | 347° |
| 2026-05-04 08:48 | 46.03462 | 22.37397 | 38126 ft | 413 kts | 346° |
| 2026-05-04 08:48 | 46.08972 | 22.35117 | 38123 ft | 413 kts | 347° |
| 2026-05-04 08:49 | 46.14539 | 22.32807 | 38126 ft | 413 kts | 346° |
| 2026-05-04 08:50 | 46.33844 | 22.24739 | 38131 ft | 413 kts | 346° |
| 2026-05-04 08:51 | 46.39382 | 22.22418 | 38121 ft | 414 kts | 346° |
| 2026-05-04 08:51 | 46.44934 | 22.20082 | 38128 ft | 414 kts | 346° |
| 2026-05-04 08:52 | 46.49529 | 22.18151 | 38125 ft | 414 kts | 346° |
| 2026-05-04 08:52 | 46.55027 | 22.15825 | 38125 ft | 413 kts | 346° |
| 2026-05-04 08:54 | 46.78131 | 22.06042 | 38128 ft | 415 kts | 346° |
| 2026-05-04 08:55 | 46.83641 | 22.03687 | 38135 ft | 414 kts | 346° |
| 2026-05-04 08:55 | 46.89180 | 22.01320 | 38134 ft | 415 kts | 345° |
| 2026-05-04 09:01 | 47.47543 | 21.76894 | 38144 ft | 416 kts | 346° |
| 2026-05-04 09:01 | 47.53136 | 21.74657 | 38138 ft | 415 kts | 346° |
| 2026-05-04 09:02 | 47.58678 | 21.72426 | 38138 ft | 416 kts | 347° |
| 2026-05-04 09:02 | 47.64242 | 21.70195 | 38132 ft | 415 kts | 346° |
| 2026-05-04 09:03 | 47.69841 | 21.67951 | 38137 ft | 415 kts | 346° |
| 2026-05-04 09:03 | 47.74498 | 21.66079 | 38141 ft | 417 kts | 346° |
| 2026-05-04 09:04 | 47.81016 | 21.63439 | 38145 ft | 416 kts | 346° |
| 2026-05-04 09:04 | 47.86603 | 21.61184 | 38148 ft | 416 kts | 346° |
| 2026-05-04 09:05 | 47.92204 | 21.58901 | 38153 ft | 416 kts | 346° |
| 2026-05-04 09:05 | 47.96844 | 21.56998 | 38147 ft | 416 kts | 346° |
| 2026-05-04 09:06 | 48.03342 | 21.54337 | 38149 ft | 417 kts | 346° |
| 2026-05-04 09:08 | 48.25650 | 21.45180 | 38109 ft | 417 kts | 346° |
| 2026-05-04 09:08 | 48.31240 | 21.42863 | 38113 ft | 417 kts | 346° |
| 2026-05-04 09:09 | 48.36865 | 21.40529 | 38118 ft | 417 kts | 346° |
| 2026-05-04 09:09 | 48.41517 | 21.38599 | 38116 ft | 417 kts | 346° |
| 2026-05-04 09:10 | 48.47133 | 21.36268 | 38117 ft | 417 kts | 346° |
| 2026-05-04 09:10 | 48.52694 | 21.33943 | 38117 ft | 417 kts | 345° |
| 2026-05-04 09:11 | 48.58283 | 21.31614 | 38115 ft | 417 kts | 345° |
| 2026-05-04 09:11 | 48.63925 | 21.29258 | 38119 ft | 418 kts | 345° |
| 2026-05-04 09:12 | 48.69513 | 21.26912 | 38117 ft | 418 kts | 345° |
| 2026-05-04 09:14 | 48.92886 | 21.17034 | 38114 ft | 418 kts | 345° |
| 2026-05-04 09:14 | 48.97569 | 21.15050 | 38110 ft | 419 kts | 344° |
| 2026-05-04 09:15 | 49.04175 | 21.12233 | 38105 ft | 419 kts | 344° |
| 2026-05-04 09:15 | 49.08850 | 21.10235 | 38109 ft | 419 kts | 345° |
| 2026-05-04 09:17 | 49.33783 | 20.97557 | 38114 ft | 419 kts | 341° |
| 2026-05-04 09:18 | 49.40216 | 20.94194 | 38100 ft | 419 kts | 341° |
| 2026-05-04 09:18 | 49.44813 | 20.91777 | 38097 ft | 420 kts | 341° |
| 2026-05-04 09:19 | 49.50406 | 20.88837 | 38090 ft | 419 kts | 341° |
| 2026-05-04 09:19 | 49.55946 | 20.85911 | 38081 ft | 420 kts | 341° |
| 2026-05-04 09:20 | 49.61469 | 20.82996 | 38081 ft | 420 kts | 341° |
| 2026-05-04 09:20 | 49.67948 | 20.79551 | 38069 ft | 420 kts | 341° |
| 2026-05-04 09:21 | 49.73458 | 20.76624 | 38062 ft | 420 kts | 341° |
| 2026-05-04 09:21 | 49.78067 | 20.74173 | 38059 ft | 420 kts | 341° |
| 2026-05-04 09:22 | 49.83640 | 20.71204 | 38055 ft | 420 kts | 341° |
| 2026-05-04 09:22 | 49.89172 | 20.68253 | 38056 ft | 421 kts | 341° |
| 2026-05-04 09:23 | 49.94706 | 20.65288 | 38048 ft | 420 kts | 341° |
| 2026-05-04 09:23 | 50.01163 | 20.61809 | 38047 ft | 421 kts | 341° |
| 2026-05-04 09:25 | 50.20759 | 20.57879 | 35115 ft | 411 kts | 4° |
| 2026-05-04 09:25 | 50.23609 | 20.58226 | 34575 ft | 409 kts | 3° |
| 2026-05-04 09:26 | 50.25481 | 20.58443 | 34262 ft | 406 kts | 4° |
| 2026-05-04 09:26 | 50.28262 | 20.58748 | 33790 ft | 403 kts | 3° |
| 2026-05-04 09:26 | 50.31049 | 20.59044 | 33319 ft | 403 kts | 3° |
| 2026-05-04 09:26 | 50.34788 | 20.59437 | 32672 ft | 405 kts | 3° |
| 2026-05-04 09:27 | 50.36655 | 20.59631 | 32348 ft | 404 kts | 3° |
| 2026-05-04 09:27 | 50.40351 | 20.60016 | 31714 ft | 399 kts | 3° |
| 2026-05-04 09:27 | 50.43103 | 20.60302 | 31243 ft | 395 kts | 3° |
| 2026-05-04 09:27 | 50.45818 | 20.60585 | 30774 ft | 391 kts | 3° |
| 2026-05-04 09:28 | 50.47610 | 20.60773 | 30464 ft | 388 kts | 3° |
| 2026-05-04 09:28 | 50.50290 | 20.61052 | 30009 ft | 384 kts | 2° |
| 2026-05-04 09:28 | 50.52934 | 20.61327 | 29554 ft | 381 kts | 2° |
| 2026-05-04 09:28 | 50.55564 | 20.61606 | 29084 ft | 378 kts | 3° |
| 2026-05-04 09:29 | 50.58151 | 20.62095 | 28612 ft | 375 kts | 8° |
| 2026-05-04 09:29 | 50.60730 | 20.62859 | 28157 ft | 374 kts | 10° |
| 2026-05-04 09:29 | 50.63246 | 20.63722 | 27720 ft | 377 kts | 11° |
| 2026-05-04 09:29 | 50.65838 | 20.64626 | 27261 ft | 379 kts | 11° |
| 2026-05-04 09:30 | 50.68366 | 20.65485 | 26819 ft | 375 kts | 10° |
| 2026-05-04 09:30 | 50.70918 | 20.66332 | 26374 ft | 371 kts | 10° |
| 2026-05-04 09:30 | 50.73398 | 20.67145 | 25942 ft | 367 kts | 10° |
| 2026-05-04 09:30 | 50.76704 | 20.68224 | 25362 ft | 362 kts | 10° |
| 2026-05-04 09:31 | 50.78356 | 20.68762 | 25071 ft | 360 kts | 10° |
| 2026-05-04 09:31 | 50.80809 | 20.69561 | 24631 ft | 362 kts | 9° |
| 2026-05-04 09:31 | 50.83276 | 20.70362 | 24200 ft | 365 kts | 9° |
| 2026-05-04 09:31 | 50.86589 | 20.71444 | 23611 ft | 362 kts | 10° |
| 2026-05-04 09:32 | 50.88197 | 20.71970 | 23327 ft | 359 kts | 10° |
| 2026-05-04 09:32 | 50.90639 | 20.72768 | 22896 ft | 355 kts | 10° |
| 2026-05-04 09:34 | 51.07274 | 20.78233 | 19940 ft | 341 kts | 9° |
| 2026-05-04 09:34 | 51.10358 | 20.79250 | 19381 ft | 340 kts | 9° |
| 2026-05-04 09:34 | 51.11895 | 20.79759 | 19109 ft | 342 kts | 9° |
| 2026-05-04 09:34 | 51.14234 | 20.80537 | 18688 ft | 345 kts | 9° |
| 2026-05-04 09:35 | 51.16587 | 20.81326 | 18255 ft | 342 kts | 9° |
| 2026-05-04 09:35 | 51.18885 | 20.82094 | 17826 ft | 338 kts | 9° |
| 2026-05-04 09:35 | 51.21162 | 20.82852 | 17401 ft | 335 kts | 9° |
| 2026-05-04 09:35 | 51.23431 | 20.83608 | 16986 ft | 331 kts | 9° |
| 2026-05-04 09:37 | 51.38964 | 20.88786 | 14052 ft | 322 kts | 9° |
| 2026-05-04 09:37 | 51.41859 | 20.89757 | 13489 ft | 319 kts | 9° |
| 2026-05-04 09:38 | 51.43316 | 20.90246 | 13206 ft | 317 kts | 9° |
| 2026-05-04 09:38 | 51.45459 | 20.90966 | 12788 ft | 315 kts | 9° |
| 2026-05-04 09:38 | 51.47578 | 20.91677 | 12375 ft | 313 kts | 8° |
| 2026-05-04 09:38 | 51.49719 | 20.92396 | 11945 ft | 312 kts | 9° |
| 2026-05-04 09:39 | 51.52508 | 20.93335 | 11411 ft | 309 kts | 9° |
| 2026-05-04 09:39 | 51.53904 | 20.93806 | 11122 ft | 308 kts | 9° |
| 2026-05-04 09:39 | 51.56018 | 20.94519 | 10707 ft | 306 kts | 8° |
| 2026-05-04 09:39 | 51.58823 | 20.95468 | 10234 ft | 300 kts | 9° |
| 2026-05-04 09:40 | 51.60195 | 20.95933 | 10059 ft | 296 kts | 9° |
| 2026-05-04 09:40 | 51.62163 | 20.96603 | 9918 ft | 285 kts | 8° |
| 2026-05-04 09:40 | 51.64107 | 20.97262 | 9534 ft | 284 kts | 9° |
| 2026-05-04 09:40 | 51.66071 | 20.97925 | 9157 ft | 283 kts | 9° |
| 2026-05-04 09:41 | 51.68098 | 20.98613 | 8829 ft | 280 kts | 8° |
| 2026-05-04 09:42 | 51.81400 | 21.03143 | 6361 ft | 268 kts | 9° |
| 2026-05-04 09:43 | 51.83250 | 21.03771 | 6010 ft | 267 kts | 9° |
| 2026-05-04 09:43 | 51.85122 | 21.04407 | 5654 ft | 269 kts | 9° |
| 2026-05-04 09:43 | 51.86972 | 21.05038 | 5402 ft | 267 kts | 8° |
| 2026-05-04 09:43 | 51.88776 | 21.05655 | 5186 ft | 260 kts | 9° |
| 2026-05-04 09:44 | 51.90597 | 21.06280 | 4957 ft | 255 kts | 8° |
| 2026-05-04 09:44 | 51.92332 | 21.06877 | 4715 ft | 250 kts | 9° |
| 2026-05-04 09:44 | 51.94035 | 21.07463 | 4455 ft | 247 kts | 9° |
| 2026-05-04 09:46 | 52.04929 | 21.06800 | 2659 ft | 206 kts | 325° |
| 2026-05-04 09:46 | 52.06235 | 21.05662 | 2398 ft | 196 kts | 326° |
| 2026-05-04 09:46 | 52.07477 | 21.04603 | 2121 ft | 181 kts | 326° |
| 2026-05-04 09:47 | 52.08600 | 21.03635 | 1873 ft | 167 kts | 325° |
| 2026-05-04 09:47 | 52.09625 | 21.02749 | 1662 ft | 157 kts | 325° |
| 2026-05-04 09:49 | 52.16221 | 20.97019 | 366 ft | 95 kts | 333° |
| 2026-05-04 09:49 | 52.16640 | 20.96650 | 366 ft | 39 kts | 339° |
| 2026-05-04 09:49 | 52.16858 | 20.96525 | 366 ft | 21 kts | 349° |
| 2026-05-04 09:51 | 52.17115 | 20.96601 | 366 ft | 11 kts | 20° |
| 2026-05-04 09:51 | 52.17206 | 20.96566 | 366 ft | 15 kts | 332° |
| 2026-05-04 09:51 | 52.17297 | 20.96481 | 366 ft | 10 kts | 329° |
| 2026-05-04 09:51 | 52.17361 | 20.96455 | 366 ft | 10 kts | 4° |
| 2026-05-04 09:52 | 52.17396 | 20.96480 | 366 ft | 2 kts | 57° |
| 2026-05-04 09:52 | 52.17402 | 20.96501 | 366 ft | 0 kts | 61° |